createdAt,value
2018-06-29T00:00:00.240Z,100.00
2018-06-29T00:02:28.695Z,98.80
2018-06-29T00:04:56.913Z,96.57
2018-06-29T00:07:25.263Z,96.07
2018-06-29T00:09:53.650Z,98.17
2018-06-29T00:12:21.940Z,100.40
2018-06-29T00:14:50.235Z,96.30
2018-06-29T00:17:18.576Z,96.50
2018-06-29T00:19:46.932Z,94.03
2018-06-29T00:22:15.327Z,97.23
2018-06-29T00:24:43.645Z,102.93
2018-06-29T00:27:11.907Z,94.60
2018-06-29T00:29:40.298Z,96.87
2018-06-29T00:32:08.611Z,95.10
2018-06-29T00:34:37.558Z,94.47
2018-06-29T00:37:05.891Z,95.90
2018-06-29T00:39:34.232Z,94.47
2018-06-29T00:42:02.568Z,100.80
2018-06-29T00:44:31.496Z,93.37
2018-06-29T00:46:59.783Z,96.13
2018-06-29T00:49:28.061Z,93.03
2018-06-29T00:51:56.377Z,94.00
2018-06-29T00:54:24.654Z,95.77
2018-06-29T00:56:52.959Z,98.47
2018-06-29T00:59:21.232Z,94.10
2018-06-29T01:01:50.318Z,99.80
2018-06-29T01:04:18.628Z,98.60
2018-06-29T01:06:46.876Z,93.77
2018-06-29T01:09:16.012Z,95.73
2018-06-29T01:11:44.373Z,97.27
2018-06-29T01:14:12.760Z,99.70
2018-06-29T01:16:41.160Z,102.23
2018-06-29T01:19:09.464Z,104.60
2018-06-29T01:21:37.796Z,101.90
2018-06-29T01:24:06.149Z,99.50
2018-06-29T01:26:34.556Z,99.07
2018-06-29T01:29:02.861Z,101.90
2018-06-29T01:31:31.221Z,99.77
2018-06-29T01:33:59.515Z,99.83
2018-06-29T01:36:27.825Z,97.30
2018-06-29T01:38:56.104Z,96.63
2018-06-29T01:41:25.515Z,97.37
2018-06-29T01:43:53.804Z,97.17
2018-06-29T01:46:22.100Z,98.07
2018-06-29T01:48:50.852Z,101.23
2018-06-29T01:51:19.136Z,94.80
2018-06-29T01:53:47.398Z,95.57
2018-06-29T01:56:15.746Z,95.50
2018-06-29T01:58:44.039Z,95.37
2018-06-29T02:01:12.316Z,94.67
2018-06-29T02:03:40.748Z,98.33
2018-06-29T02:06:09.064Z,101.13
2018-06-29T02:08:37.401Z,96.10
2018-06-29T02:11:06.061Z,98.10
2018-06-29T02:13:34.362Z,94.97
2018-06-29T02:16:02.645Z,92.77
2018-06-29T02:18:31.107Z,99.07
2018-06-29T02:20:59.416Z,95.60
2018-06-29T02:23:27.787Z,97.07
2018-06-29T02:25:56.078Z,93.23
2018-06-29T02:28:24.464Z,98.40
2018-06-29T02:30:52.856Z,97.00
2018-06-29T02:33:21.023Z,96.17
2018-06-29T02:35:49.335Z,96.90
2018-06-29T02:38:17.661Z,96.07
2018-06-29T02:40:46.066Z,93.77
2018-06-29T02:43:14.474Z,94.07
2018-06-29T02:45:42.989Z,99.10
2018-06-29T02:48:11.356Z,100.10
2018-06-29T02:50:39.707Z,95.57
2018-06-29T02:53:08.028Z,97.10
2018-06-29T02:55:36.286Z,98.27
2018-06-29T02:58:04.603Z,95.87
2018-06-29T03:00:32.913Z,98.87
2018-06-29T03:03:01.221Z,97.97
2018-06-29T03:05:29.497Z,99.60
2018-06-29T03:07:57.808Z,96.97
2018-06-29T03:10:26.116Z,94.93
2018-06-29T03:12:54.534Z,93.90
2018-06-29T03:15:22.963Z,95.70
2018-06-29T03:17:51.296Z,95.97
2018-06-29T03:20:19.640Z,95.63
2018-06-29T03:22:47.944Z,97.17
2018-06-29T03:25:16.287Z,97.17
2018-06-29T03:27:44.525Z,94.87
2018-06-29T03:30:12.876Z,94.90
2018-06-29T03:32:41.957Z,93.67
2018-06-29T03:35:10.262Z,91.23
2018-06-29T03:37:38.560Z,93.07
2018-06-29T03:40:06.882Z,92.70
2018-06-29T03:42:35.213Z,92.47
2018-06-29T03:45:04.114Z,91.67
2018-06-29T03:47:32.505Z,97.47
2018-06-29T03:50:00.869Z,95.87
2018-06-29T03:52:29.831Z,97.20
2018-06-29T03:54:58.291Z,95.90
2018-06-29T03:57:26.608Z,96.47
2018-06-29T03:59:54.904Z,100.93
2018-06-29T04:02:23.218Z,100.93
2018-06-29T04:04:52.329Z,99.90
2018-06-29T04:07:21.378Z,96.77
2018-06-29T04:09:49.693Z,100.50
2018-06-29T04:12:18.045Z,113.70
2018-06-29T04:14:46.832Z,103.73
2018-06-29T04:17:15.190Z,109.00
2018-06-29T04:19:44.042Z,99.47
2018-06-29T04:22:12.317Z,106.37
2018-06-29T04:24:40.728Z,106.07
2018-06-29T04:27:08.988Z,99.17
2018-06-29T04:29:37.261Z,98.30
2018-06-29T04:32:05.600Z,100.90
2018-06-29T04:34:33.904Z,97.87
2018-06-29T04:37:02.895Z,98.10
2018-06-29T04:39:31.228Z,93.00
2018-06-29T04:41:59.537Z,96.30
2018-06-29T04:44:27.827Z,100.47
2018-06-29T04:46:56.729Z,101.17
2018-06-29T04:49:25.129Z,101.37
2018-06-29T04:51:53.437Z,101.27
2018-06-29T04:54:21.771Z,103.10
2018-06-29T04:56:50.009Z,99.43
2018-06-29T04:59:18.326Z,100.70
2018-06-29T05:01:46.639Z,105.10
2018-06-29T05:04:15.018Z,104.60
2018-06-29T05:06:43.431Z,101.63
2018-06-29T05:09:11.748Z,102.60
2018-06-29T05:11:40.045Z,106.80
2018-06-29T05:14:08.314Z,98.40
2018-06-29T05:16:36.881Z,91.47
2018-06-29T05:19:05.208Z,95.90
2018-06-29T05:21:33.517Z,87.87
2018-06-29T05:24:01.788Z,90.67
2018-06-29T05:26:30.048Z,99.80
2018-06-29T05:28:58.397Z,113.60
2018-06-29T05:31:26.695Z,97.00
2018-06-29T05:33:55.008Z,89.60
2018-06-29T05:36:23.300Z,91.17
2018-06-29T05:38:51.672Z,91.73
2018-06-29T05:41:20.016Z,91.67
2018-06-29T05:43:48.471Z,90.67
2018-06-29T05:46:16.847Z,88.73
2018-06-29T05:48:45.080Z,91.20
2018-06-29T05:51:13.385Z,92.03
2018-06-29T05:53:41.693Z,92.87
2018-06-29T05:56:10.016Z,93.33
2018-06-29T05:58:38.329Z,91.00
2018-06-29T06:01:09.504Z,88.67
2018-06-29T06:03:37.855Z,87.27
2018-06-29T06:06:06.561Z,91.40
2018-06-29T06:08:34.873Z,86.40
2018-06-29T06:11:03.246Z,90.70
2018-06-29T06:13:31.556Z,89.23
2018-06-29T06:16:00.719Z,90.23
2018-06-29T06:18:29.415Z,87.93
2018-06-29T06:20:57.765Z,89.50
2018-06-29T06:23:26.293Z,84.10
2018-06-29T06:25:54.564Z,84.90
2018-06-29T06:28:22.899Z,88.10
2018-06-29T06:30:51.215Z,83.10
2018-06-29T06:33:19.547Z,84.73
2018-06-29T06:35:47.798Z,83.80
2018-06-29T06:38:16.080Z,82.50
2018-06-29T06:40:44.435Z,82.97
2018-06-29T06:43:12.728Z,84.73
2018-06-29T06:45:40.996Z,88.07
2018-06-29T06:48:09.316Z,95.13
2018-06-29T06:50:37.607Z,111.13
2018-06-29T06:53:05.945Z,101.70
2018-06-29T06:55:34.307Z,115.63
2018-06-29T06:58:02.584Z,148.63
2018-06-29T07:00:30.921Z,125.13
2018-06-29T07:02:59.201Z,141.73
2018-06-29T07:05:27.499Z,134.87
2018-06-29T07:07:55.899Z,98.40
2018-06-29T07:10:24.179Z,93.00
2018-06-29T07:12:52.461Z,90.40
2018-06-29T07:15:20.833Z,87.30
2018-06-29T07:17:49.142Z,85.77
2018-06-29T07:20:17.959Z,86.63
2018-06-29T07:22:46.300Z,83.77
2018-06-29T07:25:14.657Z,87.67
2018-06-29T07:27:43.615Z,85.27
2018-06-29T07:30:12.020Z,90.50
2018-06-29T07:32:40.324Z,87.60
2018-06-29T07:35:08.685Z,93.83
2018-06-29T07:37:37.584Z,86.03
2018-06-29T07:40:05.883Z,84.87
2018-06-29T07:42:34.247Z,86.73
2018-06-29T07:45:02.536Z,87.10
2018-06-29T07:47:30.821Z,91.47
2018-06-29T07:49:59.060Z,90.10
2018-06-29T07:52:27.927Z,97.37
2018-06-29T07:54:56.214Z,107.37
2018-06-29T07:57:24.559Z,112.93
2018-06-29T07:59:53.703Z,105.40
2018-06-29T08:02:21.980Z,101.93
2018-06-29T08:04:50.232Z,109.30
2018-06-29T08:07:18.552Z,104.67
2018-06-29T08:09:46.996Z,114.53
2018-06-29T08:12:15.315Z,101.90
2018-06-29T08:14:43.645Z,96.10
2018-06-29T08:17:11.958Z,102.63
2018-06-29T08:19:40.499Z,100.67
2018-06-29T08:22:09.089Z,101.30
2018-06-29T08:24:41.758Z,105.50
2018-06-29T08:27:10.110Z,97.30
2018-06-29T08:29:38.433Z,87.90
2018-06-29T08:32:06.770Z,88.73
2018-06-29T08:34:35.112Z,90.63
2018-06-29T08:37:03.409Z,87.17
2018-06-29T08:39:31.741Z,95.57
2018-06-29T08:42:00.078Z,90.23
2018-06-29T08:44:28.465Z,90.40
2018-06-29T08:46:56.901Z,89.43
2018-06-29T08:49:25.209Z,88.67
2018-06-29T08:51:53.504Z,95.90
2018-06-29T08:54:21.850Z,100.13
2018-06-29T08:56:50.149Z,92.77
2018-06-29T08:59:18.413Z,92.70
2018-06-29T09:01:46.661Z,99.90
2018-06-29T09:04:14.983Z,100.97
2018-06-29T09:06:43.328Z,97.00
2018-06-29T09:09:11.622Z,102.27
2018-06-29T09:11:40.156Z,100.90
2018-06-29T09:14:08.498Z,93.97
2018-06-29T09:16:36.797Z,92.37
2018-06-29T09:19:05.259Z,91.97
2018-06-29T09:21:33.625Z,89.97
2018-06-29T09:24:02.115Z,91.67
2018-06-29T09:26:30.476Z,85.93
2018-06-29T09:28:59.130Z,88.57
2018-06-29T09:31:27.915Z,88.47
2018-06-29T09:33:57.451Z,86.50
2018-06-29T09:36:25.878Z,87.23
2018-06-29T09:38:54.468Z,84.70
2018-06-29T09:41:22.928Z,82.87
2018-06-29T09:43:51.300Z,86.70
2018-06-29T09:46:19.570Z,87.40
2018-06-29T09:48:47.925Z,83.83
2018-06-29T09:51:16.364Z,84.60
2018-06-29T09:53:44.690Z,92.47
2018-06-29T09:56:14.088Z,83.67
2018-06-29T09:58:43.496Z,84.57
2018-06-29T10:01:12.384Z,86.67
2018-06-29T10:03:41.075Z,83.67
2018-06-29T10:06:10.131Z,82.70
2018-06-29T10:08:39.667Z,83.83
2018-06-29T10:11:08.606Z,85.97
2018-06-29T10:13:38.079Z,86.00
2018-06-29T10:16:09.544Z,82.33
2018-06-29T10:18:40.613Z,88.20
2018-06-29T10:21:09.654Z,87.13
2018-06-29T10:23:38.628Z,91.00
2018-06-29T10:26:08.702Z,87.87
2018-06-29T10:28:38.557Z,82.77
2018-06-29T10:31:08.269Z,87.10
2018-06-29T10:33:37.458Z,84.77
2018-06-29T10:36:10.078Z,86.17
2018-06-29T10:38:38.738Z,85.20
2018-06-29T10:41:07.268Z,86.67
2018-06-29T10:43:35.856Z,89.13
2018-06-29T10:46:04.675Z,89.00
2018-06-29T10:48:34.257Z,87.00
2018-06-29T10:51:04.116Z,84.83
2018-06-29T10:53:32.880Z,89.20
2018-06-29T10:56:01.693Z,92.67
2018-06-29T10:58:30.027Z,91.00
2018-06-29T11:00:58.499Z,93.00
2018-06-29T11:03:26.793Z,89.73
2018-06-29T11:05:55.379Z,89.47
2018-06-29T11:08:24.134Z,89.13
2018-06-29T11:10:53.029Z,91.63
2018-06-29T11:13:21.721Z,88.97
2018-06-29T11:15:50.067Z,86.07
2018-06-29T11:18:18.413Z,89.47
2018-06-29T11:20:46.828Z,86.77
2018-06-29T11:23:15.103Z,86.50
2018-06-29T11:25:43.525Z,88.83
2018-06-29T11:28:12.278Z,83.50
2018-06-29T11:30:40.804Z,86.80
2018-06-29T11:33:09.284Z,85.53
2018-06-29T11:35:37.969Z,85.67
2018-06-29T11:38:06.412Z,84.20
2018-06-29T11:40:35.224Z,84.87
2018-06-29T11:43:03.571Z,83.80
2018-06-29T11:45:31.916Z,83.63
2018-06-29T11:48:00.515Z,86.07
2018-06-29T11:50:28.997Z,88.00
2018-06-29T11:52:57.398Z,89.37
2018-06-29T11:55:25.880Z,85.60
2018-06-29T11:57:54.546Z,81.97
2018-06-29T12:00:22.869Z,90.03
2018-06-29T12:02:51.713Z,90.60
2018-06-29T12:05:20.906Z,87.40
2018-06-29T12:07:49.914Z,82.87
2018-06-29T12:10:18.192Z,82.63
2018-06-29T12:12:47.287Z,83.83
2018-06-29T12:15:15.852Z,81.70
2018-06-29T12:17:44.236Z,84.03
2018-06-29T12:20:12.679Z,82.83
2018-06-29T12:22:41.357Z,82.57
2018-06-29T12:25:10.337Z,84.17
2018-06-29T12:27:38.848Z,82.70
2018-06-29T12:30:07.555Z,84.07
2018-06-29T12:32:35.839Z,83.13
2018-06-29T12:35:04.219Z,83.10
2018-06-29T12:37:33.491Z,82.40
2018-06-29T12:40:01.970Z,83.70
2018-06-29T12:42:30.386Z,89.27
2018-06-29T12:44:59.478Z,84.87
2018-06-29T12:47:27.851Z,79.87
2018-06-29T12:49:56.135Z,78.90
2018-06-29T12:52:24.703Z,79.23
2018-06-29T12:54:53.144Z,84.30
2018-06-29T12:57:21.488Z,85.00
2018-06-29T12:59:49.784Z,83.00
2018-06-29T13:02:18.160Z,84.73
2018-06-29T13:04:48.211Z,78.33
2018-06-29T13:07:17.399Z,129.00
2018-06-29T13:09:46.653Z,88.93
2018-06-29T13:12:15.076Z,81.23
2018-06-29T13:14:43.793Z,79.63
2018-06-29T13:17:12.186Z,80.70
2018-06-29T13:19:40.474Z,78.70
2018-06-29T13:22:08.926Z,84.30
2018-06-29T13:24:37.282Z,78.97
2018-06-29T13:27:05.633Z,82.60
2018-06-29T13:29:33.974Z,80.80
2018-06-29T13:32:02.344Z,81.47
2018-06-29T13:34:30.998Z,82.90
2018-06-29T13:36:59.375Z,80.00
2018-06-29T13:39:27.747Z,82.80
2018-06-29T13:41:56.044Z,82.43
2018-06-29T13:44:24.493Z,81.67
2018-06-29T13:46:53.525Z,79.57
2018-06-29T13:49:21.980Z,79.80
2018-06-29T13:51:50.904Z,95.53
2018-06-29T13:54:19.219Z,83.50
2018-06-29T13:56:48.195Z,96.87
2018-06-29T13:59:16.521Z,80.97
2018-06-29T14:01:44.860Z,83.00
2018-06-29T14:04:13.240Z,79.20
2018-06-29T14:06:41.636Z,82.67
2018-06-29T14:09:10.017Z,83.07
2018-06-29T14:11:38.532Z,81.57
2018-06-29T14:14:06.924Z,81.47
2018-06-29T14:16:35.242Z,82.70
2018-06-29T14:19:03.531Z,86.53
2018-06-29T14:21:31.995Z,81.47
2018-06-29T14:24:00.380Z,79.50
2018-06-29T14:26:28.975Z,81.00
2018-06-29T14:28:57.416Z,81.87
2018-06-29T14:31:25.714Z,79.70
2018-06-29T14:33:54.130Z,81.40
2018-06-29T14:36:22.433Z,79.80
2018-06-29T14:38:50.818Z,81.00
2018-06-29T14:41:19.475Z,82.10
2018-06-29T14:43:47.848Z,82.67
2018-06-29T14:46:16.203Z,84.03
2018-06-29T14:48:44.467Z,84.30
2018-06-29T14:51:13.010Z,82.83
2018-06-29T14:53:41.629Z,81.90
2018-06-29T14:56:09.985Z,84.20
2018-06-29T14:58:38.344Z,82.47
2018-06-29T15:01:06.876Z,87.63
2018-06-29T15:03:35.176Z,82.00
2018-06-29T15:06:03.780Z,83.90
2018-06-29T15:08:32.179Z,80.77
2018-06-29T15:11:00.493Z,82.90
2018-06-29T15:13:28.839Z,81.53
2018-06-29T15:15:57.215Z,83.80
2018-06-29T15:18:25.644Z,82.40
2018-06-29T15:20:54.004Z,81.17
2018-06-29T15:23:22.283Z,81.13
2018-06-29T15:25:50.687Z,80.50
2018-06-29T15:28:19.121Z,83.90
2018-06-29T15:30:47.443Z,80.70
2018-06-29T15:33:16.529Z,87.70
2018-06-29T15:35:44.808Z,82.40
2018-06-29T15:38:13.188Z,79.30
2018-06-29T15:40:41.647Z,80.90
2018-06-29T15:43:11.460Z,80.60
2018-06-29T15:45:39.758Z,80.30
2018-06-29T15:48:08.506Z,78.57
2018-06-29T15:50:37.564Z,80.63
2018-06-29T15:53:06.167Z,82.67
2018-06-29T15:55:34.499Z,78.47
2018-06-29T15:58:03.132Z,81.80
2018-06-29T16:00:31.488Z,78.87
2018-06-29T16:03:01.281Z,79.87
2018-06-29T16:05:29.612Z,79.87
2018-06-29T16:07:57.948Z,78.63
2018-06-29T16:10:26.325Z,78.20
2018-06-29T16:12:55.116Z,81.17
2018-06-29T16:15:23.491Z,83.60
2018-06-29T16:17:51.853Z,78.20
2018-06-29T16:20:20.149Z,79.50
2018-06-29T16:22:48.646Z,78.80
2018-06-29T16:25:17.006Z,79.37
2018-06-29T16:27:45.378Z,78.97
2018-06-29T16:30:13.834Z,81.07
2018-06-29T16:32:42.301Z,78.83
2018-06-29T16:35:10.835Z,78.40
2018-06-29T16:37:39.345Z,76.87
2018-06-29T16:40:07.919Z,87.03
2018-06-29T16:42:36.235Z,77.67
2018-06-29T16:45:04.627Z,77.17
2018-06-29T16:47:33.156Z,83.07
2018-06-29T16:50:01.759Z,79.40
2018-06-29T16:52:30.141Z,78.43
2018-06-29T16:54:58.443Z,81.30
2018-06-29T16:57:26.963Z,80.27
2018-06-29T16:59:55.324Z,82.33
2018-06-29T17:02:23.690Z,83.00
2018-06-29T17:04:52.401Z,78.97
2018-06-29T17:07:20.733Z,79.27
2018-06-29T17:09:49.877Z,81.40
2018-06-29T17:12:19.463Z,78.67
2018-06-29T17:14:47.770Z,80.77
2018-06-29T17:17:16.651Z,80.70
2018-06-29T17:19:45.972Z,79.03
2018-06-29T17:22:14.290Z,86.70
2018-06-29T17:24:42.566Z,85.13
2018-06-29T17:27:10.932Z,84.00
2018-06-29T17:29:39.212Z,80.00
2018-06-29T17:32:07.743Z,82.60
2018-06-29T17:34:36.083Z,80.37
2018-06-29T17:37:04.450Z,81.30
2018-06-29T17:39:32.968Z,82.50
2018-06-29T17:42:01.377Z,81.50
2018-06-29T17:44:29.652Z,80.80
2018-06-29T17:46:58.195Z,83.57
2018-06-29T17:49:26.564Z,81.50
2018-06-29T17:51:54.884Z,81.17
2018-06-29T17:54:23.182Z,81.87
2018-06-29T17:56:51.498Z,83.73
2018-06-29T17:59:19.763Z,83.50
2018-06-29T18:01:48.171Z,80.37
2018-06-29T18:04:16.468Z,81.67
2018-06-29T18:06:44.760Z,83.70
2018-06-29T18:09:13.105Z,80.67
2018-06-29T18:11:41.477Z,87.13
2018-06-29T18:14:09.802Z,86.40
2018-06-29T18:16:38.174Z,80.87
2018-06-29T18:19:06.555Z,85.80
2018-06-29T18:21:34.848Z,91.07
2018-06-29T18:24:03.276Z,94.07
2018-06-29T18:26:32.476Z,101.77
2018-06-29T18:29:00.774Z,103.40
2018-06-29T18:31:29.148Z,104.33
2018-06-29T18:33:57.496Z,96.80
2018-06-29T18:36:25.774Z,93.10
2018-06-29T18:38:54.051Z,87.77
2018-06-29T18:41:22.435Z,87.37
2018-06-29T18:43:50.738Z,86.40
2018-06-29T18:46:19.030Z,88.60
2018-06-29T18:48:47.356Z,87.00
2018-06-29T18:51:16.110Z,87.80
2018-06-29T18:53:44.385Z,84.40
2018-06-29T18:56:12.704Z,83.90
2018-06-29T18:58:41.034Z,84.73
2018-06-29T19:01:09.352Z,90.37
2018-06-29T19:03:37.824Z,89.20
2018-06-29T19:06:06.207Z,85.10
2018-06-29T19:08:34.517Z,86.40
2018-06-29T19:11:02.811Z,85.67
2018-06-29T19:13:31.054Z,87.87
2018-06-29T19:15:59.404Z,87.40
2018-06-29T19:18:27.792Z,88.07
2018-06-29T19:20:56.059Z,89.43
2018-06-29T19:23:24.411Z,90.77
2018-06-29T19:25:52.692Z,91.70
2018-06-29T19:28:21.109Z,90.33
2018-06-29T19:30:49.472Z,94.37
2018-06-29T19:33:17.812Z,93.00
2018-06-29T19:35:46.163Z,92.27
2018-06-29T19:38:14.660Z,89.07
2018-06-29T19:40:42.967Z,90.07
2018-06-29T19:43:11.247Z,87.57
2018-06-29T19:45:39.801Z,94.83
2018-06-29T19:48:08.037Z,91.20
2018-06-29T19:50:36.369Z,89.80
2018-06-29T19:53:04.670Z,88.63
2018-06-29T19:55:32.988Z,88.87
2018-06-29T19:58:01.272Z,90.77
2018-06-29T20:00:29.569Z,92.27
2018-06-29T20:02:57.822Z,88.07
2018-06-29T20:05:26.154Z,87.10
2018-06-29T20:07:54.423Z,84.80
2018-06-29T20:10:22.740Z,89.77
2018-06-29T20:12:51.089Z,85.83
2018-06-29T20:15:19.479Z,88.60
2018-06-29T20:17:47.821Z,86.23
2018-06-29T20:20:16.115Z,87.27
2018-06-29T20:22:44.385Z,87.93
2018-06-29T20:25:12.692Z,91.00
2018-06-29T20:27:41.093Z,86.13
2018-06-29T20:30:09.690Z,90.23
2018-06-29T20:32:38.189Z,84.27
2018-06-29T20:35:06.601Z,84.40
2018-06-29T20:37:34.844Z,84.33
2018-06-29T20:40:03.276Z,86.77
2018-06-29T20:42:31.574Z,88.63
2018-06-29T20:44:59.887Z,93.33
2018-06-29T20:47:28.222Z,92.53
2018-06-29T20:49:56.574Z,91.47
2018-06-29T20:52:25.655Z,95.90
2018-06-29T20:54:53.993Z,98.00
2018-06-29T20:57:22.323Z,97.10
2018-06-29T20:59:50.624Z,104.90
2018-06-29T21:02:18.909Z,107.80
2018-06-29T21:04:47.257Z,108.53
2018-06-29T21:07:15.535Z,99.57
2018-06-29T21:09:43.868Z,95.20
2018-06-29T21:12:12.145Z,94.00
2018-06-29T21:14:41.136Z,92.13
2018-06-29T21:17:09.465Z,85.70
2018-06-29T21:19:37.803Z,86.27
2018-06-29T21:22:06.079Z,87.53
2018-06-29T21:24:34.460Z,89.07
2018-06-29T21:27:02.747Z,87.70
2018-06-29T21:29:31.050Z,89.33
2018-06-29T21:31:59.347Z,89.37
2018-06-29T21:34:27.591Z,91.30
2018-06-29T21:36:55.903Z,92.50
2018-06-29T21:39:24.161Z,92.23
2018-06-29T21:41:52.491Z,101.57
2018-06-29T21:44:20.772Z,99.70
2018-06-29T21:46:49.112Z,104.40
2018-06-29T21:49:17.375Z,101.50
2018-06-29T21:51:45.673Z,97.27
2018-06-29T21:54:14.779Z,92.37
2018-06-29T21:56:43.018Z,90.27
2018-06-29T21:59:11.260Z,91.30
2018-06-29T22:01:39.551Z,95.97
2018-06-29T22:04:07.815Z,92.00
2018-06-29T22:06:36.085Z,91.27
2018-06-29T22:09:05.906Z,92.27
2018-06-29T22:11:34.275Z,90.97
2018-06-29T22:14:02.547Z,93.47
2018-06-29T22:16:30.841Z,93.37
2018-06-29T22:18:59.109Z,93.53
2018-06-29T22:21:27.404Z,102.87
2018-06-29T22:23:55.939Z,102.60
2018-06-29T22:26:24.223Z,104.60
2018-06-29T22:28:52.478Z,103.00
2018-06-29T22:31:20.817Z,99.60
2018-06-29T22:33:49.150Z,98.93
2018-06-29T22:36:17.447Z,95.03
2018-06-29T22:38:45.879Z,94.87
2018-06-29T22:41:14.147Z,95.60
2018-06-29T22:43:42.458Z,97.57
2018-06-29T22:46:10.743Z,91.77
2018-06-29T22:48:39.077Z,94.50
2018-06-29T22:51:08.108Z,93.20
2018-06-29T22:53:36.340Z,93.17
2018-06-29T22:56:04.701Z,93.70
2018-06-29T22:58:33.096Z,95.63
2018-06-29T23:01:01.941Z,96.00
2018-06-29T23:03:35.478Z,94.20
2018-06-29T23:06:03.785Z,93.60
2018-06-29T23:08:32.056Z,95.30
2018-06-29T23:11:00.390Z,99.83
2018-06-29T23:13:28.711Z,102.80
2018-06-29T23:15:56.955Z,106.27
2018-06-29T23:18:25.261Z,107.70
2018-06-29T23:20:53.605Z,111.07
2018-06-29T23:23:21.995Z,145.37
2018-06-29T23:25:50.351Z,167.53
2018-06-29T23:28:18.666Z,174.57
2018-06-29T23:30:46.960Z,205.60
2018-06-29T23:33:15.301Z,202.60
2018-06-29T23:35:43.621Z,203.27
2018-06-29T23:38:11.928Z,207.73
2018-06-29T23:40:40.188Z,200.90
2018-06-29T23:43:08.538Z,185.13
2018-06-29T23:45:36.898Z,159.63
2018-06-29T23:48:05.251Z,147.77
2018-06-29T23:50:33.627Z,124.57
2018-06-29T23:53:01.972Z,110.57
2018-06-29T23:55:30.295Z,107.17
2018-06-29T23:57:58.705Z,98.07
